Athol, South Dakota
Current Conditions -  °F | °C
As of 9:53 AM on Saturday 25 Oct 2014 (Local Time) from KABR Reporting Station
Clear Clear  
Wind Chill: 53°   Ceiling: Unl
Heat Index: 53°   Visibility: 10mi
Dew Point: 36°   Wind: 5mph
Humidity: 52%   Direction: 320°NW
Pressure: 30.16"   Gusts: NA
Location:  45.027°N, 98.472°W
Report Text: KABR 251453Z AUTO 32004KT 10SM CLR 12/02 A3016 RMK AO2 SLP215 T01170022 51016
Loading
Personal Weather Stations






























Interactive Weather Map
Tropical Storm Tracking
New forecast layout! Learn more

10-Day Weather Forecast

Advertisements
Track Severe Weather on mobile